Tiempo atmosférico en la estación meteorológica de Sariñena, Depósito Agua, Huesca (302 m.)



Fecha
DESCASC
Temp. máxima en grados centígrados (hora)
DESCASC
Temp. mínima en grados centígrados (hora)
DESCASC
Temp. media en grados centígrados
DESCASC
Racha de viento máxima en m/sg (hora)
DESCASC
Velocidad máxima media en intervalos de 10 minutos(hora)
DESCASC
Precipitaciones diarias en mm
DESCASC
Precipitaciones de 00:00 a 06:00 en mm
DESCASC
Precipitaciones de 06:00 a 12:00 en mm
DESCASC
Precipitaciones de 12:00 a 18:00 en mm
DESCASC
Precipitaciones de 18:00 a 24:00 en mm
DESCASC
16-01-2020 11.8 (16:00) -3 (08:30) 4.4 3.61 (16:30) 2.22 (16:40) 0 0 0 0 0
15-01-2020 6.5 (16:20) -4 (06:10) 1.3 3.61 (15:10) 2.22 (16:30) 0 0 0 0 0
14-01-2020 1.1 (16:00) -3.2 (08:50) -1.1 3.06 (01:20) 1.67 (08:30) 0 0 0 0 0
13-01-2020 1.5 (16:20) -2 (08:50) -0.3 3.33 (16:40) 2.22 (16:30) 0 0 0 0 0
12-01-2020 1.5 (17:00) -2.4 (-00:0) -0.5 2.78 (21:00) 1.39 (17:00) 0 0 0 0 0
11-01-2020 9.1 (16:00) -3.2 (-00:0) 3 3.89 (15:00) 2.5 (17:00) 0 0 0 0 0
10-01-2020 11.5 (14:40) 1.6 (00:00) 6.6 6.67 (01:50) 3.89 (01:40) 0 0 0 0 0
09-01-2020 3.9 (16:10) 0 (00:00) 2 4.17 (14:40) 2.22 (14:40) 0 0 0 0 0
08-01-2020 3.9 (16:10) 1.8 (00:00) 2.9 3.61 (15:50) 1.67 (09:10) 0 0 0 0 0
07-01-2020 3.1 (19:00) 1.7 (00:00) 2.4 3.61 (00:40) 1.94 (00:40) 0 0 0 0 0
06-01-2020 5 (16:00) 1.9 (00:00) 3.4 3.61 (19:10) 2.22 (19:00) 0 0 0 0 0
05-01-2020 4.4 (17:00) 1.7 (00:00) 3.1 2.78 (17:30) 1.67 (17:50) 0 0 0 0 0
04-01-2020 4.8 (14:00) 2.5 (00:00) 3.7 4.72 (14:40) 3.33 (14:40) 0 0 0 0 0
03-01-2020 4.6 (16:20) 0.4 (00:00) 2.5 5.28 (07:50) 2.78 (07:20) 0 0 0 0 0
02-01-2020 2 (17:00) 0.6 (00:00) 1.3 3.33 (03:20) 1.39 (03:20) 0 0 0 0 0
01-01-2020 2.9 (00:00) 1.2 (00:00) 2.1 4.17 (05:50) 2.5 (06:30) 0 0 0 0 0
31-12-2019 4.6 (00:00) 2.9 (00:00) 3.8 4.17 (00:50) 2.5 (01:20) 0.2 0 0.2 0 0
30-12-2019 -- (--) -- (--) -- -- (--) -- (--) -- 0 0 0 --
29-12-2019 3.7 (17:00) 1 (00:00) 2.4 3.06 (08:00) 1.67 (08:00) 0 0 0 0 0
28-12-2019 3.2 (17:00) 1.1 (00:00) 2.2 2.78 (09:00) 1.67 (07:40) 0 0 0 0 0
27-12-2019 3.7 (16:20) 0.6 (00:00) 2.2 2.5 (12:20) 1.39 (09:20) 0 0 0 0 0
26-12-2019 14.5 (14:50) 2.3 (00:00) 8.4 11.39 (15:10) 6.67 (15:10) 0.2 0.2 0 0 0
25-12-2019 7.6 (14:50) 1.9 (00:00) 4.7 2.5 (06:00) 1.67 (06:00) 0 0 0 0 0
24-12-2019 17.5 (14:40) 7 (00:00) 12.3 8.61 (13:40) 5 (03:40) 0 0 0 0 0
23-12-2019 14.4 (15:00) 7.1 (00:00) 10.7 11.67 (13:00) 7.22 (00:50) 0 0 0 0 0
22-12-2019 13.8 (15:50) 9.7 (00:00) 11.8 16.39 (01:20) 8.89 (01:20) 1 0 0 0.8 0.2
21-12-2019 13.1 (21:30) 6.8 (00:00) 10 14.44 (23:20) 9.72 (23:10) 4.2 0.2 0 3.8 0.2

Gráficas

Temp. máximas Temp. mínimas Temp. medias Precipitaciones Rachas de viento máximas Velocidades máximas media en intervalos de 10 minutos

Datos horarios

Fecha y hora oficial Temperatura (ºC) Velocidad del viento (km/h) Dirección del viento Racha (km/h) Dirección de racha Precipitación (mm) Presión (hPa) Tendencia (hPa) Humedad (%)
2020-01-19 23:00:00 1.2 0 Calma 10 Noroeste 0 -- -- 71
2020-01-19 22:00:00 2.7 7 Oeste 10 Oeste 0 -- -- 64
2020-01-19 21:00:00 4.6 6 Nordeste 11 Norte 0 -- -- 49
2020-01-19 20:00:00 5.6 8 Norte 26 Nordeste 0 -- -- 50
2020-01-19 19:00:00 6.3 10 Nordeste 16 Nordeste 0 -- -- 51
2020-01-19 18:00:00 8.6 6 Nordeste 17 Noroeste 0 -- -- 60
2020-01-19 17:00:00 10 9 Noroeste 22 Oeste 0 -- -- 72
2020-01-19 16:00:00 9.7 13 Noroeste 27 Oeste 0 -- -- 78
2020-01-19 15:00:00 9.3 17 Oeste 27 Oeste 0 -- -- 79
2020-01-19 14:00:00 8.4 15 Oeste 28 Oeste 0 -- -- 87
2020-01-19 13:00:00 8 11 Oeste 20 Oeste 0 -- -- 94
2020-01-19 12:00:00 7.3 9 Oeste 15 Noroeste 0 -- -- 97
2020-01-19 11:00:00 6.5 8 Oeste 12 Oeste 0 -- -- 99
2020-01-19 10:00:00 5.8 3 Norte 7 Oeste 0 -- -- 99
2020-01-19 09:00:00 5.6 4 Oeste 13 Oeste 1.4 -- -- 99
2020-01-19 08:00:00 5.8 2 Oeste 9 Noroeste 0.6 -- -- 98
2020-01-19 07:00:00 5.8 6 Noroeste 13 Norte 0.2 -- -- 98
2020-01-19 06:00:00 5.7 6 Noroeste 16 Noroeste 0.2 -- -- 98
2020-01-19 05:00:00 5.9 6 Noroeste 11 Noroeste 0.2 -- -- 98
2020-01-19 04:00:00 6 4 Oeste 13 Norte 0 -- -- 98
2020-01-19 03:00:00 5.9 9 Norte 13 Norte 0.2 -- -- 97
2020-01-19 02:00:00 5.8 3 Noroeste 8 Noroeste 1 -- -- 97
2020-01-19 01:00:00 5.9 0 Calma 14 Sudoeste 3.2 -- -- 95
2020-01-19 00:00:00 6.5 12 Oeste 24 Oeste 0.4 -- -- 89
2020-01-18 23:00:00 7.8 2 Nordeste 22 Nordeste 0 -- -- 77
2020-01-18 22:00:00 6.8 4 Este 7 Este 0 -- -- 86
2020-01-18 21:00:00 7.2 0 Calma 10 Sudeste 0 -- -- 83
2020-01-18 20:00:00 7.6 5 Noroeste 7 Oeste 0 -- -- 82
2020-01-18 19:00:00 8.3 0 Calma 7 Este 0 -- -- 77
2020-01-18 18:00:00 8.7 5 Este 12 Sudeste 0 -- -- 74
2020-01-18 17:00:00 9.4 6 Sudeste 16 Sudeste 0 -- -- 68
2020-01-18 16:00:00 9.9 8 Este 17 Sudeste 0 -- -- 65
2020-01-18 15:00:00 9.8 11 Este 18 Sudeste 0 -- -- 65
2020-01-18 14:00:00 10 8 Este 15 Este 0 -- -- 65
2020-01-18 13:00:00 9.2 4 Sudeste 9 Este 0 -- -- 66
2020-01-18 12:00:00 7.4 3 Este 9 Nordeste 0 -- -- 73
2020-01-18 11:00:00 5.5 5 Este 9 Sur 0 -- -- 85
2020-01-18 10:00:00 3.1 2 Sur 8 Este 0 -- -- 93
2020-01-18 09:00:00 2 0 Calma 5 Nordeste 0 -- -- 92
2020-01-18 08:00:00 2 3 Sur 8 Norte 0 -- -- 91
2020-01-18 07:00:00 2.3 0 Calma 8 Sur 0 -- -- 90
2020-01-18 06:00:00 2.2 3 Sudeste 5 Sudeste 0 -- -- 88
2020-01-18 05:00:00 3.4 4 Norte 13 Norte 0 -- -- 84
2020-01-18 04:00:00 2.9 7 Norte 14 Norte 0 -- -- 87
2020-01-18 03:00:00 1.7 3 Noroeste 9 Noroeste 0 -- -- 88
2020-01-18 02:00:00 2.4 4 Norte 20 Noroeste 0 -- -- 84
2020-01-18 01:00:00 4.3 17 Oeste 27 Oeste 0 -- -- 78
2020-01-18 00:00:00 4.6 17 Oeste 29 Oeste 0 -- -- 79
2020-01-17 23:00:00 5.1 13 Oeste 22 Oeste 0 -- -- 76
2020-01-17 22:00:00 5.6 12 Oeste 28 Oeste 0 -- -- 76
2020-01-17 21:00:00 5.4 8 Sudoeste 14 Oeste 0 -- -- 76
2020-01-17 20:00:00 7.5 10 Oeste 24 Noroeste 0 -- -- 69
2020-01-17 19:00:00 8.7 20 Noroeste 36 Oeste 0 -- -- 64
2020-01-17 18:00:00 9.7 14 Oeste 32 Oeste 0 -- -- 63
2020-01-17 17:00:00 11.6 21 Oeste 36 Oeste 0 -- -- 61
2020-01-17 16:00:00 12.3 18 Noroeste 44 Noroeste 0 -- -- 62
2020-01-17 15:00:00 13.2 27 Oeste 47 Oeste 0 -- -- 57
2020-01-17 14:00:00 12.8 21 Oeste 45 Oeste 0 -- -- 64
2020-01-17 13:00:00 13.2 18 Oeste 38 Oeste 0.8 -- -- 67
2020-01-17 12:00:00 9 7 Noroeste 14 Oeste 0 -- -- 94
2020-01-17 11:00:00 6.1 2 Oeste 6 Oeste 0 -- -- 100
2020-01-17 10:00:00 3.1 5 Noroeste 8 Nordeste 0 -- -- 100
2020-01-17 09:00:00 1.6 3 Oeste 8 Noroeste 0 -- -- 99
2020-01-17 08:00:00 2.3 4 Noroeste 9 Noroeste 0 -- -- 99
2020-01-17 07:00:00 2.8 6 Noroeste 10 Oeste 0 -- -- 99
2020-01-17 06:00:00 2.9 6 Oeste 9 Sudoeste 0 -- -- 99
2020-01-17 05:00:00 2.9 3 Nordeste 8 Oeste 0.2 -- -- 99
2020-01-17 04:00:00 1.9 3 Norte 12 Oeste 0 -- -- 98
2020-01-17 03:00:00 1.6 4 Oeste 6 Oeste 0 -- -- 98
2020-01-17 02:00:00 1.8 0 Calma 8 Norte 0 -- -- 98
2020-01-17 01:00:00 2 4 Oeste 11 Norte 0 -- -- 96
2020-01-17 00:00:00 2.8 3 Noroeste 9 Norte 0 -- -- 96
2020-01-16 23:00:00 3.1 2 Norte 9 Norte 0 -- -- 96
2020-01-16 22:00:00 3.4 0 Calma 4 Oeste 0 -- -- 95
2020-01-16 21:00:00 4.4 2 Sudoeste 6 Noroeste 0 -- -- 93
2020-01-16 20:00:00 5.1 0 Calma 6 Sudeste 0 -- -- 90
2020-01-16 19:00:00 7 3 Este 9 Sudeste 0 -- -- 84
2020-01-16 18:00:00 8.7 6 Sudeste 13 Este 0 -- -- 80
2020-01-16 17:00:00 10.7 7 Este 13 Este 0 -- -- 75
2020-01-16 16:00:00 11.8 5 Sudeste 12 Sudeste 0 -- -- 73
2020-01-16 15:00:00 11.3 6 Sudeste 10 Sudeste 0 -- -- 72
2020-01-16 14:00:00 9.8 5 Sur 9 Sur 0 -- -- 79
2020-01-16 13:00:00 7 4 Sudeste 8 Sudeste 0 -- -- 92
2020-01-16 12:00:00 3.7 2 Noroeste 6 Oeste 0 -- -- 100
2020-01-16 11:00:00 1.6 2 Noroeste 7 Oeste 0 -- -- 100
2020-01-16 10:00:00 -1.1 4 Oeste 6 Oeste 0 -- -- 100
2020-01-16 09:00:00 -2.8 3 Oeste 5 Sudoeste 0 -- -- 100
2020-01-16 08:00:00 -2.5 3 Oeste 5 Sudoeste 0 -- -- 100
2020-01-16 07:00:00 -2.5 2 Sudoeste 5 Noroeste 0 -- -- 100
2020-01-16 06:00:00 -2.2 3 Noroeste 6 Noroeste 0 -- -- 100
2020-01-16 05:00:00 -2.3 3 Noroeste 8 Oeste 0 -- -- 100
2020-01-16 04:00:00 -2.3 2 Oeste 6 Sudoeste 0 -- -- 100
2020-01-16 03:00:00 -2.2 2 Sur 8 Noroeste 0 -- -- 99
2020-01-16 02:00:00 -1.8 0 Calma 4 Nordeste 0 -- -- 99
2020-01-16 01:00:00 -1.6 4 Sudeste 8 Sudeste 0 -- -- 99
2020-01-16 00:00:00 -1.2 0 Calma 3 Sur 0 -- -- 98
2020-01-15 23:00:00 -0.2 0 Calma 8 Oeste 0 -- -- 98
2020-01-15 22:00:00 1.1 4 Noroeste 9 Norte 0 -- -- 98
2020-01-15 21:00:00 0.7 2 Este 9 Sudeste 0 -- -- 97
2020-01-15 20:00:00 1.6 0 Calma 6 Este 0 -- -- 96
2020-01-15 19:00:00 2.4 4 Sudeste 8 Sudeste 0 -- -- 94
2020-01-15 18:00:00 4 4 Sudeste 8 Sur 0 -- -- 92
2020-01-15 17:00:00 5.9 5 Sur 12 Sudeste 0 -- -- 90
2020-01-15 16:00:00 6 3 Sudeste 13 Sudeste 0 -- -- 100
2020-01-15 15:00:00 4.5 8 Sudeste 12 Sudeste 0 -- -- 100
2020-01-15 14:00:00 2.3 0 Calma 10 Sudeste 0 -- -- 100
2020-01-15 13:00:00 0.3 2 Sudeste 5 Sudeste 0 -- -- 100
2020-01-15 12:00:00 -1.1 0 Calma 7 Norte 0 -- -- 100
2020-01-15 11:00:00 -2.4 3 Norte 6 Norte 0 -- -- 100
2020-01-15 10:00:00 -2.7 3 Sudoeste 6 Sur 0 -- -- 100
2020-01-15 09:00:00 -2.8 4 Sur 6 Sur 0 -- -- 100
2020-01-15 08:00:00 -3.3 3 Sudeste 9 Sudeste 0 -- -- 100
2020-01-15 07:00:00 -3.3 3 Sur 5 Sur 0 -- -- 100
2020-01-15 06:00:00 -3.9 2 Nordeste 5 Nordeste 0 -- -- 100
2020-01-15 05:00:00 -3.3 0 Calma 4 Este 0 -- -- 100
2020-01-15 04:00:00 -2.9 2 Este 4 Nordeste 0 -- -- 100
2020-01-15 03:00:00 -2.6 2 Nordeste 5 Nordeste 0 -- -- 100
2020-01-15 02:00:00 -2.2 0 Calma 4 Nordeste 0 -- -- 100
2020-01-15 01:00:00 -1.9 0 Calma 4 Oeste 0 -- -- 100
2020-01-15 00:00:00 -1.7 0 Calma 4 Norte 0 -- -- 100
2020-01-14 23:00:00 -1.4 2 Nordeste 6 Oeste 0 -- -- 100
2020-01-14 22:00:00 -1.1 0 Calma 6 Noroeste 0 -- -- 100
2020-01-14 21:00:00 -0.6 0 Calma 6 Oeste 0 -- -- 100
2020-01-14 20:00:00 -0.4 2 Oeste 7 Norte 0 -- -- 100
2020-01-14 19:00:00 -0.1 2 Oeste 4 Sudoeste 0 -- -- 100
2020-01-14 18:00:00 0.5 2 Noroeste 5 Sudoeste 0 -- -- 100
2020-01-14 17:00:00 1 3 Sudeste 9 Sur 0 -- -- 100
2020-01-14 16:00:00 1.1 0 Calma 9 Sudeste 0 -- -- 100
2020-01-14 15:00:00 0.9 3 Sur 8 Sur 0 -- -- 100
2020-01-14 14:00:00 0.3 4 Sudeste 8 Sudeste 0 -- -- 100
2020-01-14 13:00:00 -0.4 3 Sur 8 Sudeste 0 -- -- 100
2020-01-14 12:00:00 -1.3 3 Sudeste 9 Sur 0 -- -- 100
2020-01-14 11:00:00 -2 2 Sudeste 8 Sudeste 0 -- -- 100
2020-01-14 10:00:00 -2.7 2 Sur 4 Este 0 -- -- 100
2020-01-14 09:00:00 -3.2 2 Sudeste 9 Sudeste 0 -- -- 100
2020-01-14 08:00:00 -2.7 2 Este 7 Sur 0 -- -- 100
2020-01-14 07:00:00 -2.8 0 Calma 5 Sur 0 -- -- 100
2020-01-14 06:00:00 -3 0 Calma 5 Sudeste 0 -- -- 100
2020-01-14 05:00:00 -2.6 3 Sudeste 9 Norte 0 -- -- 100
2020-01-14 04:00:00 -2 4 Nordeste 6 Este 0 -- -- 100
2020-01-14 03:00:00 -1.8 4 Nordeste 8 Nordeste 0 -- -- 100
2020-01-14 02:00:00 -1.3 2 Oeste 11 Noroeste 0 -- -- 100
2020-01-14 01:00:00 -1.2 3 Noroeste 8 Sur 0 -- -- 100
2020-01-14 00:00:00 -0.9 0 Calma 7 Noroeste 0 -- -- 100
2020-01-13 23:00:00 -0.8 0 Calma 6 Sur 0 -- -- 100
2020-01-13 22:00:00 -0.4 0 Calma 5 Oeste 0 -- -- 100
2020-01-13 21:00:00 -0.4 2 Sur 9 Sudeste 0 -- -- 100
2020-01-13 20:00:00 -0.2 5 Sudeste 10 Sudeste 0 -- -- 100
2020-01-13 19:00:00 0.4 5 Sudeste 10 Sur 0 -- -- 100
2020-01-13 18:00:00 0.9 6 Sudeste 10 Sudeste 0 -- -- 100
2020-01-13 17:00:00 1.3 3 Sudeste 12 Sur 0 -- -- 100
2020-01-13 16:00:00 1.2 0 Calma 8 Sudeste 0 -- -- 100
2020-01-13 15:00:00 0.7 3 Este 7 Sudeste 0 -- -- 100
2020-01-13 14:00:00 0.1 3 Sudeste 8 Sudeste 0 -- -- 100
2020-01-13 13:00:00 -0.7 0 Calma 7 Sudeste 0 -- -- 100
2020-01-13 12:00:00 -1.4 0 Calma 7 Sur 0 -- -- 100
2020-01-13 11:00:00 -2 4 Este 8 Este 0 -- -- 100
2020-01-13 10:00:00 -1.9 5 Este 7 Este 0 -- -- 100
2020-01-13 09:00:00 -2 2 Este 6 Sudeste 0 -- -- 100
2020-01-13 08:00:00 -1.6 0 Calma 8 Sudeste 0 -- -- 100
2020-01-13 07:00:00 -1.4 2 Sudeste 6 Sudeste 0 -- -- 100
2020-01-13 06:00:00 -1.3 2 Nordeste 6 Norte 0 -- -- 100
2020-01-13 05:00:00 -1.2 3 Norte 6 Norte 0 -- -- 100
2020-01-13 04:00:00 -0.6 3 Norte 8 Noroeste 0 -- -- 100
2020-01-13 03:00:00 -0.5 3 Noroeste 9 Noroeste 0 -- -- 100
2020-01-13 02:00:00 -0.2 3 Norte 8 Nordeste 0 -- -- 100
2020-01-13 01:00:00 0.1 3 Oeste 8 Noroeste 0 -- -- 100
2020-01-13 00:00:00 0.4 3 Norte 8 Noroeste 0 -- -- 100
2020-01-12 23:00:00 0.5 0 Calma 6 Noroeste 0 -- -- 100
2020-01-12 22:00:00 0.4 3 Sudoeste 9 Oeste 0 -- -- 100
2020-01-12 21:00:00 0.8 4 Sudoeste 10 Sudoeste 0 -- -- 100
2020-01-12 20:00:00 0.9 3 Oeste 8 Noroeste 0 -- -- 100
2020-01-12 19:00:00 1 2 Noroeste 5 Norte 0 -- -- 100
2020-01-12 18:00:00 1.3 4 Sur 9 Sur 0 -- -- 100
2020-01-12 17:00:00 1.5 5 Sudeste 7 Sudeste 0 -- -- 100
2020-01-12 16:00:00 1.1 3 Noroeste 8 Este 0 -- -- 100
2020-01-12 15:00:00 1 3 Norte 6 Norte 0 -- -- 100
2020-01-12 14:00:00 0.6 2 Noroeste 5 Oeste 0 -- -- 100
2020-01-12 13:00:00 0.3 2 Noroeste 8 Nordeste 0 -- -- 100
2020-01-12 12:00:00 -0.6 2 Nordeste 7 Noroeste 0 -- -- 100
2020-01-12 11:00:00 -0.9 0 Calma 5 Norte 0 -- -- 100
2020-01-12 10:00:00 -1.4 2 Norte 6 Norte 0 -- -- 100
2020-01-12 09:00:00 -1.7 3 Norte 5 Noroeste 0 -- -- 100
2020-01-12 08:00:00 -1.9 3 Norte 6 Noroeste 0 -- -- 100
2020-01-12 07:00:00 -1.8 3 Norte 5 Norte 0 -- -- 99
2020-01-12 06:00:00 -1.5 3 Norte 6 Norte 0 -- -- 99
2020-01-12 05:00:00 -2.3 3 Norte 6 Oeste 0 -- -- 99
2020-01-12 04:00:00 -2.3 3 Noroeste 6 Noroeste 0 -- -- 99
2020-01-12 03:00:00 -1.1 2 Noroeste 4 Oeste 0 -- -- 98
2020-01-12 02:00:00 -0.5 3 Norte 4 Norte 0 -- -- 98
2020-01-12 01:00:00 -0.9 0 Calma 5 Nordeste 0 -- -- 97
2020-01-12 00:00:00 -0.4 4 Norte 4 Norte 0 -- -- 97
2020-01-11 23:00:00 0.3 3 Norte 6 Norte 0 -- -- 96
2020-01-11 22:00:00 1.3 3 Norte 5 Noroeste 0 -- -- 96
2020-01-11 21:00:00 2 2 Norte 4 Norte 0 -- -- 94
2020-01-11 20:00:00 3.4 0 Calma 6 Este 0 -- -- 91
2020-01-11 19:00:00 4.9 3 Este 8 Sudeste 0 -- -- 87
2020-01-11 18:00:00 6.1 5 Este 14 Sudeste 0 -- -- 83
2020-01-11 17:00:00 8.4 9 Sudeste 13 Sudeste 0 -- -- 77
2020-01-11 16:00:00 9.1 6 Sudeste 12 Sudeste 0 -- -- 76
2020-01-11 15:00:00 8.2 8 Sudeste 14 Sudeste 0 -- -- 80
2020-01-11 14:00:00 7.5 8 Sudeste 12 Sudeste 0 -- -- 83
2020-01-11 13:00:00 5.9 2 Sur 6 Sudeste 0 -- -- 89
2020-01-11 12:00:00 2.9 3 Nordeste 5 Norte 0 -- -- 100
2020-01-11 11:00:00 -0.8 0 Calma 4 Oeste 0 -- -- 100
2020-01-11 10:00:00 -1.9 2 Sudoeste 6 Norte 0 -- -- 100
2020-01-11 09:00:00 -3.1 3 Nordeste 5 Norte 0 -- -- 98
2020-01-11 08:00:00 -2.8 0 Calma 6 Oeste 0 -- -- 98
2020-01-11 07:00:00 -2.4 5 Sudeste 9 Sudeste 0 -- -- 98
2020-01-11 06:00:00 -1.8 0 Calma 4 Norte 0 -- -- 98
2020-01-11 05:00:00 -1.4 3 Nordeste 5 Nordeste 0 -- -- 97
2020-01-11 04:00:00 -0.7 0 Calma 7 Norte 0 -- -- 97
2020-01-11 03:00:00 0.1 2 Oeste 4 Oeste 0 -- -- 97
2020-01-11 02:00:00 0.2 0 Calma 4 Noroeste 0 -- -- 97
2020-01-11 01:00:00 1.2 2 Noroeste 10 Norte 0 -- -- 96
2020-01-11 00:00:00 1.9 6 Noroeste 12 Noroeste 0 -- -- 97
2020-01-10 23:00:00 2.6 4 Norte 9 Noroeste 0 -- -- 95
2020-01-10 22:00:00 3.5 4 Norte 8 Oeste 0 -- -- 94
2020-01-10 21:00:00 4.4 4 Noroeste 9 Oeste 0 -- -- 94
2020-01-10 20:00:00 5.4 4 Noroeste 9 Oeste 0 -- -- 90
2020-01-10 19:00:00 6.6 4 Oeste 8 Sudoeste 0 -- -- 87
2020-01-10 18:00:00 8 4 Sudeste 10 Sudeste 0 -- -- 86
2020-01-10 17:00:00 9.5 9 Sudeste 18 Sudeste 0 -- -- 83
2020-01-10 16:00:00 10.8 12 Este 19 Sudeste 0 -- -- 78
2020-01-10 15:00:00 11.3 10 Sudeste 18 Sudeste 0 -- -- 79
2020-01-10 14:00:00 10.5 4 Sur 14 Sur 0 -- -- 83
2020-01-10 13:00:00 7.8 2 Norte 8 Norte 0 -- -- 100
2020-01-10 12:00:00 5.2 3 Noroeste 11 Norte 0 -- -- 100
2020-01-10 11:00:00 3.7 4 Noroeste 10 Sudoeste 0 -- -- 100
2020-01-10 10:00:00 3.2 0 Calma 13 Este 0 -- -- 100
2020-01-10 09:00:00 2.8 8 Nordeste 14 Norte 0 -- -- 100
2020-01-10 08:00:00 3.2 6 Nordeste 10 Noroeste 0 -- -- 100
2020-01-10 07:00:00 3.1 0 Calma 9 Oeste 0 -- -- 100
2020-01-10 06:00:00 3.3 3 Oeste 8 Noroeste 0 -- -- 100
2020-01-10 05:00:00 3.6 0 Calma 4 Noroeste 0 -- -- 100
2020-01-10 04:00:00 4.1 3 Noroeste 10 Norte 0 -- -- 100
2020-01-10 03:00:00 4 4 Noroeste 18 Oeste 0 -- -- 100
2020-01-10 02:00:00 4.1 13 Oeste 24 Oeste 0 -- -- 100
2020-01-10 01:00:00 3.9 5 Oeste 11 Oeste 0 -- -- 100
2020-01-10 00:00:00 3.6 0 Calma 7 Sudoeste 0 -- -- 100
2020-01-09 23:00:00 3.4 0 Calma 8 Oeste 0 -- -- 100
2020-01-09 22:00:00 3.2 2 Oeste 9 Oeste 0 -- -- 100
2020-01-09 21:00:00 3.3 2 Noroeste 7 Oeste 0 -- -- 100
2020-01-09 20:00:00 3.5 3 Sudoeste 6 Sur 0 -- -- 100
2020-01-09 19:00:00 3.6 3 Sudeste 9 Sudeste 0 -- -- 100
2020-01-09 18:00:00 3.5 0 Calma 9 Este 0 -- -- 100
2020-01-09 17:00:00 3.7 5 Sudeste 14 Este 0 -- -- 100
2020-01-09 16:00:00 3.8 2 Sudoeste 9 Sudeste 0 -- -- 100
2020-01-09 15:00:00 3.6 5 Sudeste 15 Sudeste 0 -- -- 100
2020-01-09 14:00:00 3.3 3 Sur 8 Sudeste 0 -- -- 100
2020-01-09 13:00:00 2.6 0 Calma 5 Sur 0 -- -- 100
2020-01-09 12:00:00 2 0 Calma 4 Oeste 0 -- -- 100
2020-01-09 11:00:00 1.1 2 Norte 5 Norte 0 -- -- 100
2020-01-09 10:00:00 0.2 2 Norte 6 Noroeste 0 -- -- 100
2020-01-09 09:00:00 0 0 Calma 4 Noroeste 0 -- -- 100
2020-01-09 08:00:00 0.1 0 Calma 4 Norte 0 -- -- 100
2020-01-09 07:00:00 0.3 2 Oeste 8 Noroeste 0 -- -- 100
2020-01-09 06:00:00 0.6 3 Oeste 5 Noroeste 0 -- -- 100
2020-01-09 05:00:00 0.8 0 Calma 3 Noroeste 0 -- -- 100
2020-01-09 04:00:00 0.9 0 Calma 5 Este 0 -- -- 100
2020-01-09 03:00:00 1.1 0 Calma 5 Sudeste 0 -- -- 100
2020-01-09 02:00:00 1.1 4 Este 8 Este 0 -- -- 100
2020-01-09 01:00:00 1.8 2 Nordeste 4 Este 0 -- -- 100
2020-01-09 00:00:00 1.9 0 Calma 6 Oeste 0 -- -- 100
2020-01-08 23:00:00 1.9 2 Noroeste 6 Noroeste 0 -- -- 100
2020-01-08 22:00:00 2 3 Noroeste 5 Noroeste 0 -- -- 100
2020-01-08 21:00:00 2.4 3 Oeste 8 Noroeste 0 -- -- 100
2020-01-08 20:00:00 2.5 4 Oeste 8 Oeste 0 -- -- 99
2020-01-08 19:00:00 2.9 0 Calma 7 Oeste 0 -- -- 99
2020-01-08 18:00:00 3.1 2 Oeste 7 Oeste 0 -- -- 98
2020-01-08 17:00:00 3.6 0 Calma 9 Sur 0 -- -- 98
2020-01-08 16:00:00 3.8 5 Sudeste 13 Sudeste 0 -- -- 99
2020-01-08 15:00:00 3.7 4 Sudeste 10 Este 0 -- -- 100
2020-01-08 14:00:00 3.2 0 Calma 5 Este 0 -- -- 100
2020-01-08 13:00:00 2.9 2 Sudeste 6 Sudeste 0 -- -- 100
2020-01-08 12:00:00 2.5 3 Este 11 Sudeste 0 -- -- 100
2020-01-08 11:00:00 2 3 Este 11 Nordeste 0 -- -- 100
2020-01-08 10:00:00 1.9 3 Nordeste 9 Este 0 -- -- 100
2020-01-08 09:00:00 2.1 5 Este 10 Este 0 -- -- 100
2020-01-08 08:00:00 2 3 Norte 5 Norte 0 -- -- 100
2020-01-08 07:00:00 2.1 0 Calma 4 Norte 0 -- -- 100
2020-01-08 06:00:00 2.1 0 Calma 7 Nordeste 0 -- -- 100
2020-01-08 05:00:00 2.3 3 Norte 8 Nordeste 0 -- -- 100
2020-01-08 04:00:00 2.5 3 Nordeste 5 Norte 0 -- -- 100
2020-01-08 03:00:00 2.6 0 Calma 5 Oeste 0 -- -- 100
2020-01-08 02:00:00 2.6 0 Calma 8 Noroeste 0 -- -- 100
2020-01-08 01:00:00 2.9 3 Noroeste 7 Oeste 0 -- -- 100
2020-01-08 00:00:00 3 2 Noroeste 6 Noroeste 0 -- -- 99
2020-01-07 23:00:00 3.1 2 Oeste 6 Oeste 0 -- -- 99
2020-01-07 22:00:00 3.1 0 Calma 4 Sudeste 0 -- -- 99
2020-01-07 21:00:00 3.1 2 Norte 4 Nordeste 0 -- -- 98
2020-01-07 20:00:00 3.1 0 Calma 4 Este 0 -- -- 98
2020-01-07 19:00:00 3.1 0 Calma 5 Este 0 -- -- 98
2020-01-07 18:00:00 3 2 Oeste 6 Norte 0 -- -- 98
2020-01-07 17:00:00 3 3 Norte 8 Norte 0 -- -- 98
2020-01-07 16:00:00 2.9 3 Noroeste 9 Noroeste 0 -- -- 99
2020-01-07 15:00:00 2.7 0 Calma 11 Oeste 0 -- -- 100
2020-01-07 14:00:00 2.4 4 Noroeste 10 Oeste 0 -- -- 100
2020-01-07 13:00:00 2.2 4 Oeste 10 Oeste 0 -- -- 100
2020-01-07 12:00:00 2.2 2 Sudoeste 8 Sudoeste 0 -- -- 100
2020-01-07 11:00:00 1.9 3 Oeste 8 Oeste 0 -- -- 100
2020-01-07 10:00:00 1.8 3 Noroeste 8 Oeste 0 -- -- 100
2020-01-07 09:00:00 1.8 2 Sur 8 Sur 0 -- -- 100
2020-01-07 08:00:00 1.8 0 Calma 8 Sudoeste 0 -- -- 100
2020-01-07 07:00:00 1.9 3 Sudoeste 9 Sudoeste 0 -- -- 100
2020-01-07 06:00:00 1.9 2 Sudoeste 8 Oeste 0 -- -- 100
2020-01-07 05:00:00 1.8 5 Oeste 9 Oeste 0 -- -- 100
2020-01-07 04:00:00 1.8 2 Norte 8 Noroeste 0 -- -- 100
2020-01-07 03:00:00 1.9 0 Calma 10 Noroeste 0 -- -- 100
2020-01-07 02:00:00 1.9 4 Noroeste 12 Oeste 0 -- -- 100
2020-01-07 01:00:00 2.4 4 Noroeste 13 Noroeste 0 -- -- 100
2020-01-07 00:00:00 2.3 7 Noroeste 12 Oeste 0 -- -- 100
2020-01-06 23:00:00 2.6 6 Oeste 11 Noroeste 0 -- -- 100
2020-01-06 22:00:00 2.8 6 Norte 12 Noroeste 0 -- -- 100
2020-01-06 21:00:00 2.9 8 Noroeste 12 Norte 0 -- -- 100
2020-01-06 20:00:00 3.6 5 Noroeste 13 Norte 0 -- -- 100
2020-01-06 19:00:00 4.2 8 Noroeste 12 Noroeste 0 -- -- 100
2020-01-06 18:00:00 4.9 2 Noroeste 8 Oeste 0 -- -- 100
2020-01-06 17:00:00 5 0 Calma 9 Oeste 0 -- -- 100
2020-01-06 16:00:00 5 3 Noroeste 8 Sudoeste 0 -- -- 100
2020-01-06 15:00:00 4.6 0 Calma 12 Noroeste 0 -- -- 100
2020-01-06 14:00:00 4.1 4 Oeste 9 Oeste 0 -- -- 100
2020-01-06 13:00:00 3.7 4 Oeste 12 Noroeste 0 -- -- 100
2020-01-06 12:00:00 3.4 6 Noroeste 12 Oeste 0 -- -- 100
2020-01-06 11:00:00 2.8 6 Oeste 12 Oeste 0 -- -- 100
2020-01-06 10:00:00 2.6 4 Noroeste 8 Noroeste 0 -- -- 100